ペトロパブロフスク・カムチャツキー の空港の天気 - METARとTAF

ペトロパブロフスク・カムチャツキー空港 ( UHPP / PKC ) - ロシア ペトロパブロフスク・カムチャツキー
飛行場実況気象(Metar)
観測時間01/19 22:00 MAGT (01/19 11:00 UTC)
風向・風速北北西 7m/s
視程10km以上
天気現象
全天の8割程度の雲 雲底高度 1100m
気温-2℃
湿度74%
気圧984hPa
METARUHPP 191100Z 34007MPS 9999 BKN036CB M02/M06 Q0984 R34L/720355 NOSIG RMK QFE735/0980
過去の天気等 Google飛行場航空写真 Wunderground天気予報

過去48時間のMETAR

飛行場予報(TAF)
発表時間: 1/19 18:46 MAGT (1/19 07:46 UTC)
予報対象時間: 19日20時 MAGT ~ 21日2時 MAGT
風向・風速北 5m/s 瞬間風速 12m/s
視程10km以上
全天の8割程度の積乱雲 雲底高度 610m
19日20時 MAGT ~ 19日23時 MAGT に一時的に
風向・風速北東 6m/s 瞬間風速 17m/s
視程3100m
天気現象弱いしゅう雪 低い地吹雪
全天の8割程度の雲 雲底高度 340m
全天を覆う積乱雲 雲底高度 610m
19日23時 MAGT から
風向・風速北東 9m/s 瞬間風速 18m/s
視程2000m
天気現象しゅう雪 高い地吹雪
全天の8割程度の雲 雲底高度 210m
全天を覆う積乱雲 雲底高度 610m
19日23時 MAGT ~ 20日20時 MAGT に一時的に
風向・風速東 11m/s 瞬間風速 25m/s
視程500m
天気現象強いしゅう雪 高い地吹雪
全天を覆う雲 鉛直視程 90m
TAF UHPP 190746Z 1909/2015 35005G12MPS 9999 BKN020CB
TEMPO 1909/1912 05006G17MPS 3100 -SHSN DRSN BKN011 OVC020CB
FM191200 04009G18MPS 2000 SHSN BLSN BKN007 OVC020CB
TEMPO 1912/2009 09011G25MPS 0500 +SHSN BLSN VV003